createdAt,value
2019-04-07T00:00:34.275Z,12.01
2019-04-07T00:01:34.403Z,11.9
2019-04-07T00:02:34.597Z,12.07
2019-04-07T00:03:34.717Z,11.95
2019-04-07T00:04:34.154Z,12.02
2019-04-07T00:05:34.603Z,11.91
2019-04-07T00:06:34.233Z,11.9
2019-04-07T00:07:34.637Z,11.86
2019-04-07T00:08:34.417Z,11.88
2019-04-07T00:09:34.460Z,11.86
2019-04-07T00:10:34.301Z,11.82
2019-04-07T00:11:34.775Z,11.82
2019-04-07T00:12:34.542Z,11.78
2019-04-07T00:13:34.169Z,11.65
2019-04-07T00:14:34.234Z,11.72
2019-04-07T00:15:34.515Z,11.57
2019-04-07T00:16:35.193Z,11.61
2019-04-07T00:17:34.665Z,11.51
2019-04-07T00:18:34.528Z,11.39
2019-04-07T00:19:34.949Z,11.37
2019-04-07T00:20:34.505Z,11.37
2019-04-07T00:21:33.980Z,11.29
2019-04-07T00:22:34.528Z,11.24
2019-04-07T00:23:34.402Z,11.35
2019-04-07T00:24:34.368Z,11.29
2019-04-07T00:25:33.937Z,11.28
2019-04-07T00:26:33.930Z,11.25
2019-04-07T00:27:34.292Z,11.27
2019-04-07T00:28:33.921Z,11.27
2019-04-07T00:29:34.397Z,11.22
2019-04-07T00:30:34.083Z,11.32
2019-04-07T00:31:33.879Z,11.24
2019-04-07T00:32:33.868Z,11.25
2019-04-07T00:33:34.598Z,11.14
2019-04-07T00:34:33.854Z,11.1
2019-04-07T00:35:37.631Z,11.07
2019-04-07T00:36:34.125Z,11.07
2019-04-07T00:37:35.053Z,11.06
2019-04-07T00:38:34.661Z,11.04
2019-04-07T00:39:33.809Z,10.91
2019-04-07T00:40:34.880Z,10.99
2019-04-07T00:41:34.477Z,10.92
2019-04-07T00:42:33.954Z,10.99
2019-04-07T00:43:34.246Z,10.94
2019-04-07T00:44:35.285Z,10.88
2019-04-07T00:45:35.291Z,10.92
2019-04-07T00:46:34.407Z,10.76
2019-04-07T00:47:34.238Z,10.85
2019-04-07T00:48:33.739Z,10.74
2019-04-07T00:49:34.780Z,10.76
2019-04-07T00:50:34.610Z,10.7
2019-04-07T00:51:34.176Z,10.66
2019-04-07T00:52:34.872Z,10.61
2019-04-07T00:53:34.273Z,10.63
2019-04-07T00:54:33.924Z,10.53
2019-04-07T00:55:34.577Z,10.55
2019-04-07T00:56:33.712Z,10.53
2019-04-07T00:57:34.058Z,10.51
2019-04-07T00:58:34.359Z,10.41
2019-04-07T00:59:34.347Z,10.44
2019-04-07T01:00:33.828Z,10.42
2019-04-07T01:01:34.259Z,10.36
2019-04-07T01:02:33.577Z,10.4
2019-04-07T01:03:33.906Z,10.4
2019-04-07T01:04:34.385Z,10.36
2019-04-07T01:05:45.750Z,10.36
2019-04-07T01:06:34.400Z,10.36
2019-04-07T01:07:33.527Z,10.32
2019-04-07T01:08:34.124Z,10.33
2019-04-07T01:09:34.103Z,10.34
2019-04-07T01:10:33.897Z,10.29
2019-04-07T01:11:34.254Z,10.26
2019-04-07T01:12:34.552Z,10.25
2019-04-07T01:13:33.595Z,10.36
2019-04-07T01:14:33.890Z,10.27
2019-04-07T01:15:34.109Z,10.33
2019-04-07T01:16:34.005Z,10.33
2019-04-07T01:17:34.485Z,10.32
2019-04-07T01:18:34.157Z,10.29
2019-04-07T01:19:34.364Z,10.34
2019-04-07T01:20:34.104Z,10.3
2019-04-07T01:21:34.530Z,10.3
2019-04-07T01:22:33.378Z,10.25
2019-04-07T01:23:33.813Z,10.27
2019-04-07T01:24:33.398Z,10.2
2019-04-07T01:25:33.829Z,10.23
2019-04-07T01:26:34.206Z,10.25
2019-04-07T01:27:33.678Z,10.26
2019-04-07T01:28:34.033Z,10.17
2019-04-07T01:29:33.309Z,10.18
2019-04-07T01:30:33.915Z,10.14
2019-04-07T01:31:33.351Z,10.23
2019-04-07T01:32:34.442Z,10.23
2019-04-07T01:33:33.821Z,10.18
2019-04-07T01:34:34.092Z,10.17
2019-04-07T01:35:44.781Z,10.08
2019-04-07T01:36:34.097Z,10.09
2019-04-07T01:37:34.098Z,10.14
2019-04-07T01:38:34.481Z,10.12
2019-04-07T01:39:33.704Z,10.07
2019-04-07T01:40:33.770Z,10.11
2019-04-07T01:41:33.181Z,10.08
2019-04-07T01:42:34.331Z,9.99
2019-04-07T01:43:33.863Z,10.05
2019-04-07T01:44:33.442Z,10.09
2019-04-07T01:45:34.356Z,10.02
2019-04-07T01:46:33.863Z,10.02
2019-04-07T01:47:34.268Z,9.9
2019-04-07T01:48:33.809Z,9.97
2019-04-07T01:49:33.905Z,9.97
2019-04-07T01:50:33.891Z,9.96
2019-04-07T01:51:33.456Z,9.91
2019-04-07T01:52:33.704Z,9.9
2019-04-07T01:53:33.710Z,9.83
2019-04-07T01:54:33.250Z,9.86
2019-04-07T01:55:33.561Z,9.87
2019-04-07T01:56:33.744Z,9.78
2019-04-07T01:57:33.854Z,9.83
2019-04-07T01:58:33.089Z,9.68
2019-04-07T01:59:33.600Z,9.68
2019-04-07T02:00:32.995Z,9.69
2019-04-07T02:01:33.863Z,9.66
2019-04-07T02:02:34.050Z,9.69
2019-04-07T02:03:33.246Z,9.65
2019-04-07T02:04:33.506Z,9.69
2019-04-07T02:05:34.059Z,9.64
2019-04-07T02:06:34.782Z,9.65
2019-04-07T02:07:33.740Z,9.6
2019-04-07T02:08:33.245Z,9.57
2019-04-07T02:09:33.628Z,9.58
2019-04-07T02:10:34.116Z,9.58
2019-04-07T02:11:34.171Z,9.48
2019-04-07T02:12:33.684Z,9.5
2019-04-07T02:13:33.874Z,9.5
2019-04-07T02:14:33.573Z,9.43
2019-04-07T02:15:33.037Z,9.47
2019-04-07T02:16:33.678Z,9.4
2019-04-07T02:17:34.096Z,9.39
2019-04-07T02:18:34.228Z,9.46
2019-04-07T02:19:32.917Z,9.42
2019-04-07T02:20:33.521Z,9.39
2019-04-07T02:21:33.057Z,9.35
2019-04-07T02:22:32.779Z,9.47
2019-04-07T02:23:32.947Z,9.35
2019-04-07T02:24:33.418Z,9.42
2019-04-07T02:25:34.036Z,9.35
2019-04-07T02:26:33.193Z,9.35
2019-04-07T02:27:33.400Z,9.35
2019-04-07T02:28:33.233Z,9.38
2019-04-07T02:29:33.414Z,9.38
2019-04-07T02:30:33.761Z,9.32
2019-04-07T02:31:32.790Z,9.31
2019-04-07T02:32:34.432Z,9.24
2019-04-07T02:33:33.568Z,9.24
2019-04-07T02:34:32.753Z,9.23
2019-04-07T02:35:33.053Z,9.28
2019-04-07T02:36:36.223Z,9.23
2019-04-07T02:37:33.583Z,9.15
2019-04-07T02:38:33.389Z,9.2
2019-04-07T02:39:32.873Z,9.15
2019-04-07T02:40:34.290Z,9.18
2019-04-07T02:41:33.009Z,9.18
2019-04-07T02:42:32.992Z,9.24
2019-04-07T02:43:34.022Z,9.15
2019-04-07T02:44:33.603Z,9.11
2019-04-07T02:45:33.142Z,9.26
2019-04-07T02:46:33.698Z,9.15
2019-04-07T02:47:33.774Z,9.2
2019-04-07T02:48:35.123Z,9.08
2019-04-07T02:49:35.498Z,9.05
2019-04-07T02:50:33.255Z,9.02
2019-04-07T02:51:32.443Z,9.02
2019-04-07T02:52:34.234Z,9.02
2019-04-07T02:53:33.543Z,9.01
2019-04-07T02:54:32.726Z,9.02
2019-04-07T02:55:33.527Z,8.99
2019-04-07T02:56:33.670Z,9.04
2019-04-07T02:57:33.771Z,8.94
2019-04-07T02:58:32.756Z,8.92
2019-04-07T02:59:33.311Z,8.92
2019-04-07T03:00:32.764Z,8.92
2019-04-07T03:01:32.982Z,8.91
2019-04-07T03:02:33.430Z,8.91
2019-04-07T03:03:33.043Z,8.96
2019-04-07T03:04:33.391Z,8.94
2019-04-07T03:05:33.316Z,8.86
2019-04-07T03:06:54.465Z,8.86
2019-04-07T03:07:32.558Z,8.95
2019-04-07T03:08:32.629Z,8.94
2019-04-07T03:09:34.764Z,8.83
2019-04-07T03:10:33.100Z,8.83
2019-04-07T03:11:33.818Z,8.8
2019-04-07T03:12:33.254Z,8.83
2019-04-07T03:13:34.962Z,8.92
2019-04-07T03:14:34.413Z,8.89
2019-04-07T03:15:32.443Z,8.81
2019-04-07T03:16:33.560Z,8.83
2019-04-07T03:17:32.298Z,8.77
2019-04-07T03:18:32.142Z,8.83
2019-04-07T03:19:33.267Z,8.7
2019-04-07T03:20:33.533Z,8.66
2019-04-07T03:21:32.958Z,8.66
2019-04-07T03:22:32.417Z,8.76
2019-04-07T03:23:32.928Z,8.7
2019-04-07T03:24:33.482Z,8.65
2019-04-07T03:25:32.921Z,8.73
2019-04-07T03:26:32.355Z,8.7
2019-04-07T03:27:33.894Z,8.58
2019-04-07T03:28:33.295Z,8.58
2019-04-07T03:29:32.263Z,8.66
2019-04-07T03:30:41.019Z,8.56
2019-04-07T03:31:36.491Z,8.62
2019-04-07T03:32:38.109Z,8.61
2019-04-07T03:33:40.401Z,8.58
2019-04-07T03:34:40.414Z,8.61
2019-04-07T03:35:38.310Z,8.59
2019-04-07T03:37:21.123Z,8.5
2019-04-07T03:37:54.701Z,8.48
2019-04-07T03:38:53.642Z,8.48
2019-04-07T03:39:52.538Z,8.48
2019-04-07T03:40:54.934Z,8.38
2019-04-07T03:41:52.576Z,8.38
2019-04-07T03:42:52.998Z,8.41
2019-04-07T03:43:52.757Z,8.41
2019-04-07T03:44:51.850Z,8.38
2019-04-07T03:45:52.357Z,8.47
2019-04-07T03:46:52.628Z,8.44
2019-04-07T03:47:52.779Z,8.45
2019-04-07T03:48:53.619Z,8.44
2019-04-07T03:49:53.288Z,8.45
2019-04-07T03:50:52.520Z,8.43
2019-04-07T03:51:52.218Z,8.44
2019-04-07T03:52:51.751Z,8.38
2019-04-07T03:53:53.944Z,8.36
2019-04-07T03:54:52.618Z,8.37
2019-04-07T03:55:51.877Z,8.33
2019-04-07T03:56:52.968Z,8.37
2019-04-07T03:57:53.417Z,8.36
2019-04-07T03:58:52.378Z,8.33
2019-04-07T03:59:52.451Z,8.28
2019-04-07T04:00:53.182Z,8.3
2019-04-07T04:01:52.640Z,8.18
2019-04-07T04:02:52.407Z,8.23
2019-04-07T04:03:51.802Z,8.08
2019-04-07T04:04:52.443Z,8.16
2019-04-07T04:05:57.016Z,8.11
2019-04-07T04:06:52.210Z,8.18
2019-04-07T04:07:52.643Z,8.15
2019-04-07T04:08:53.319Z,8.1
2019-04-07T04:09:52.168Z,8.11
2019-04-07T04:10:51.726Z,8.15
2019-04-07T04:11:51.812Z,8.05
2019-04-07T04:12:53.016Z,8.02
2019-04-07T04:13:53.446Z,8.02
2019-04-07T04:14:53.094Z,8.11
2019-04-07T04:15:53.162Z,8.19
2019-04-07T04:16:54.221Z,8.2
2019-04-07T04:17:53.912Z,8.15
2019-04-07T04:18:52.537Z,8.19
2019-04-07T04:19:52.003Z,8.18
2019-04-07T04:20:51.439Z,8.16
2019-04-07T04:21:54.191Z,8.16
2019-04-07T04:22:51.421Z,8.29
2019-04-07T04:23:53.006Z,8.22
2019-04-07T04:24:53.344Z,8.23
2019-04-07T04:25:52.417Z,8.25
2019-04-07T04:26:53.629Z,8.33
2019-04-07T04:27:51.485Z,8.33
2019-04-07T04:28:51.867Z,8.29
2019-04-07T04:29:57.691Z,8.36
2019-04-07T04:30:51.090Z,8.3
2019-04-07T04:31:52.697Z,8.29
2019-04-07T04:32:52.439Z,8.28
2019-04-07T04:33:51.720Z,8.3
2019-04-07T04:34:52.082Z,8.2
2019-04-07T04:35:51.815Z,8.28
2019-04-07T04:36:53.035Z,8.29
2019-04-07T04:37:59.633Z,8.3
2019-04-07T04:38:52.340Z,8.37
2019-04-07T04:39:51.473Z,8.28
2019-04-07T04:40:52.710Z,8.26
2019-04-07T04:41:52.011Z,8.29
2019-04-07T04:42:51.901Z,8.3
2019-04-07T04:43:51.967Z,8.33
2019-04-07T04:44:52.171Z,8.36
2019-04-07T04:45:51.146Z,8.2
2019-04-07T04:46:53.010Z,8.29
2019-04-07T04:47:51.611Z,8.2
2019-04-07T04:48:52.491Z,8.25
2019-04-07T04:49:51.096Z,8.23
2019-04-07T04:50:52.860Z,8.25
2019-04-07T04:51:51.804Z,8.36
2019-04-07T04:52:52.274Z,8.33
2019-04-07T04:53:52.603Z,8.33
2019-04-07T04:54:52.066Z,8.41
2019-04-07T04:55:51.974Z,8.41
2019-04-07T04:56:53.452Z,8.41
2019-04-07T04:57:51.150Z,8.52
2019-04-07T04:58:51.824Z,8.63
2019-04-07T04:59:50.990Z,8.7
2019-04-07T05:00:50.982Z,8.63
2019-04-07T05:01:51.360Z,8.71
2019-04-07T05:02:52.488Z,8.79
2019-04-07T05:03:52.427Z,8.84
2019-04-07T05:04:52.762Z,9.01
2019-04-07T05:05:52.378Z,9.08
2019-04-07T05:06:51.525Z,9.18
2019-04-07T05:08:06.783Z,9.32
2019-04-07T05:08:52.376Z,9.36
2019-04-07T05:09:58.928Z,9.4
2019-04-07T05:10:51.020Z,9.39
2019-04-07T05:11:51.358Z,9.5
2019-04-07T05:12:50.836Z,9.58
2019-04-07T05:13:51.457Z,9.71
2019-04-07T05:14:51.424Z,9.79
2019-04-07T05:15:51.544Z,9.87
2019-04-07T05:16:51.491Z,9.99
2019-04-07T05:17:50.918Z,10.05
2019-04-07T05:18:51.831Z,10.17
2019-04-07T05:19:51.076Z,10.3
2019-04-07T05:20:51.115Z,10.36
2019-04-07T05:21:50.743Z,10.44
2019-04-07T05:22:51.265Z,10.64
2019-04-07T05:23:51.385Z,10.71
2019-04-07T05:24:53.005Z,10.92
2019-04-07T05:25:51.281Z,11
2019-04-07T05:26:51.796Z,11.29
2019-04-07T05:27:50.820Z,11.24
2019-04-07T05:28:50.739Z,11.35
2019-04-07T05:29:52.075Z,11.44
2019-04-07T05:30:51.842Z,11.39
2019-04-07T05:31:51.185Z,11.55
2019-04-07T05:32:51.394Z,11.61
2019-04-07T05:33:51.226Z,11.82
2019-04-07T05:34:52.081Z,11.85
2019-04-07T05:35:50.760Z,11.96
2019-04-07T05:36:51.214Z,12.07
2019-04-07T05:38:06.488Z,12.13
2019-04-07T05:38:51.900Z,12.21
2019-04-07T05:39:51.578Z,12.17
2019-04-07T05:40:51.054Z,12.31
2019-04-07T05:41:51.437Z,12.46
2019-04-07T05:42:52.070Z,12.47
2019-04-07T05:43:51.026Z,12.5
2019-04-07T05:44:50.980Z,12.65
2019-04-07T05:45:51.266Z,12.71
2019-04-07T05:46:52.789Z,12.72
2019-04-07T05:47:55.864Z,12.89
2019-04-07T05:48:55.518Z,12.93
2019-04-07T05:49:54.267Z,13.11
2019-04-07T05:50:51.399Z,13.19
2019-04-07T05:51:50.619Z,13.17
2019-04-07T05:52:51.476Z,13.26
2019-04-07T05:53:52.891Z,13.38
2019-04-07T05:54:56.139Z,13.49
2019-04-07T05:55:53.739Z,13.59
2019-04-07T05:56:51.394Z,13.64
2019-04-07T05:57:52.051Z,13.62
2019-04-07T05:58:51.643Z,13.66
2019-04-07T05:59:51.285Z,13.67
2019-04-07T06:00:53.343Z,13.89
2019-04-07T06:01:58.352Z,14.1
2019-04-07T06:02:50.806Z,14.2
2019-04-07T06:03:51.115Z,14.33
2019-04-07T06:04:53.389Z,14.25
2019-04-07T06:05:55.260Z,14.37
2019-04-07T06:06:56.780Z,14.61
2019-04-07T06:07:51.415Z,14.62
2019-04-07T06:08:53.128Z,14.62
2019-04-07T06:09:55.973Z,14.68
2019-04-07T06:10:51.075Z,14.75
2019-04-07T06:11:51.176Z,14.81
2019-04-07T06:12:53.123Z,14.81
2019-04-07T06:13:52.873Z,14.94
2019-04-07T06:14:52.347Z,15.1
2019-04-07T06:15:54.027Z,15.38
2019-04-07T06:16:55.705Z,15.59
2019-04-07T06:17:51.239Z,15.84
2019-04-07T06:18:50.386Z,16.11
2019-04-07T06:19:53.723Z,16.67
2019-04-07T06:20:52.769Z,16.86
2019-04-07T06:21:54.064Z,17.19
2019-04-07T06:22:56.437Z,17.41
2019-04-07T06:23:55.209Z,17.62
2019-04-07T06:24:51.329Z,17.59
2019-04-07T06:25:51.161Z,17.68
2019-04-07T06:26:54.319Z,17.86
2019-04-07T06:27:51.854Z,17.87
2019-04-07T06:29:01.366Z,18
2019-04-07T06:29:50.370Z,18.12
2019-04-07T06:30:50.948Z,18.41
2019-04-07T06:31:50.702Z,18.67
2019-04-07T06:32:51.554Z,18.92
2019-04-07T06:33:51.279Z,19.06
2019-04-07T06:34:53.992Z,19.11
2019-04-07T06:35:54.232Z,19.22
2019-04-07T06:36:58.165Z,19.08
2019-04-07T06:37:50.819Z,18.98
2019-04-07T06:38:56.273Z,18.95
2019-04-07T06:39:55.637Z,19.04
2019-04-07T06:40:57.147Z,19.13
2019-04-07T06:41:50.108Z,19.39
2019-04-07T06:42:51.255Z,19.48
2019-04-07T06:43:51.755Z,19.58
2019-04-07T06:44:54.229Z,19.62
2019-04-07T06:45:54.029Z,19.81
2019-04-07T06:46:50.148Z,19.76
2019-04-07T06:47:51.034Z,19.8
2019-04-07T06:48:51.427Z,19.91
2019-04-07T06:49:52.092Z,19.91
2019-04-07T06:51:02.832Z,20.06
2019-04-07T06:51:51.058Z,20.1
2019-04-07T06:52:50.936Z,19.99
2019-04-07T06:53:53.907Z,19.91
2019-04-07T06:54:56.115Z,19.74
2019-04-07T06:55:51.123Z,19.54
2019-04-07T06:56:51.040Z,19.31
2019-04-07T06:57:51.671Z,19.33
2019-04-07T06:58:50.460Z,19.31
2019-04-07T06:59:53.874Z,19.11
2019-04-07T07:00:53.538Z,19.29
2019-04-07T07:01:50.667Z,19.47
2019-04-07T07:02:50.378Z,19.61
2019-04-07T07:03:51.472Z,19.69
2019-04-07T07:04:51.898Z,19.76
2019-04-07T07:05:52.458Z,20.02
2019-04-07T07:06:52.917Z,20.06
2019-04-07T07:07:54.026Z,20.33
2019-04-07T07:08:57.345Z,20.48
2019-04-07T07:09:51.912Z,20.62
2019-04-07T07:10:53.131Z,20.54
2019-04-07T07:11:51.133Z,20.42
2019-04-07T07:12:50.862Z,20.39
2019-04-07T07:13:51.995Z,20.42
2019-04-07T07:14:52.722Z,20.51
2019-04-07T07:15:51.864Z,20.31
2019-04-07T07:16:52.308Z,20.33
2019-04-07T07:18:00.066Z,20.41
2019-04-07T07:18:54.616Z,20.55
2019-04-07T07:19:51.139Z,20.89
2019-04-07T07:20:51.447Z,20.88
2019-04-07T07:21:51.014Z,20.98
2019-04-07T07:22:53.166Z,21.16
2019-04-07T07:23:53.743Z,21.31
2019-04-07T07:24:55.617Z,21.35
2019-04-07T07:25:51.863Z,21.52
2019-04-07T07:26:51.827Z,21.69
2019-04-07T07:27:51.263Z,21.77
2019-04-07T07:28:51.023Z,21.94
2019-04-07T07:29:56.554Z,22.06
2019-04-07T07:30:56.284Z,22.42
2019-04-07T07:31:59.057Z,22.47
2019-04-07T07:32:52.095Z,22.67
2019-04-07T07:33:50.845Z,22.9
2019-04-07T07:34:50.795Z,23
2019-04-07T07:35:53.794Z,23.04
2019-04-07T07:36:58.603Z,23.13
2019-04-07T07:37:51.005Z,23.2
2019-04-07T07:39:10.063Z,23.2
2019-04-07T07:39:51.937Z,23.19
2019-04-07T07:40:53.990Z,22.85
2019-04-07T07:41:54.093Z,22.6
2019-04-07T07:42:56.614Z,22.36
2019-04-07T07:43:51.387Z,22.35
2019-04-07T07:44:51.455Z,22.35
2019-04-07T07:45:53.755Z,22.51
2019-04-07T07:46:55.339Z,22.43
2019-04-07T07:47:56.597Z,22.51
2019-04-07T07:48:51.117Z,22.62
2019-04-07T07:49:50.882Z,22.6
2019-04-07T07:50:51.246Z,22.67
2019-04-07T07:51:54.252Z,22.61
2019-04-07T07:52:57.142Z,22.47
2019-04-07T07:53:51.468Z,22.46
2019-04-07T07:54:51.960Z,22.47
2019-04-07T07:55:52.125Z,22.61
2019-04-07T07:56:54.944Z,22.64
2019-04-07T07:58:51.622Z,22.7
2019-04-07T07:59:51.972Z,22.54
2019-04-07T08:00:50.884Z,22.4
2019-04-07T08:01:54.506Z,22.31
2019-04-07T08:02:55.874Z,22.35
2019-04-07T08:03:55.678Z,22.47
2019-04-07T08:04:51.160Z,22.47
2019-04-07T08:05:51.328Z,22.62
2019-04-07T08:06:51.330Z,22.52
2019-04-07T08:07:54.045Z,22.49
2019-04-07T08:08:52.619Z,22.52
2019-04-07T08:09:54.032Z,22.52
2019-04-07T08:10:51.702Z,22.4
2019-04-07T08:12:04.087Z,22.21
2019-04-07T08:12:54.494Z,21.98
2019-04-07T08:13:52.467Z,21.96
2019-04-07T08:14:58.709Z,21.88
2019-04-07T08:15:51.918Z,21.61
2019-04-07T08:16:52.267Z,21.34
2019-04-07T08:17:51.106Z,21.21
2019-04-07T08:18:52.490Z,21.14
2019-04-07T08:19:51.417Z,21.16
2019-04-07T08:20:52.178Z,21.12
2019-04-07T08:21:55.514Z,21.04
2019-04-07T08:22:51.682Z,20.97
2019-04-07T08:23:52.436Z,20.7
2019-04-07T08:24:55.934Z,20.5
2019-04-07T08:25:53.869Z,20.32
2019-04-07T08:26:51.261Z,20.02
2019-04-07T08:27:51.151Z,20.08
2019-04-07T08:28:52.588Z,19.94
2019-04-07T08:29:51.038Z,19.87
2019-04-07T08:30:52.695Z,19.84
2019-04-07T08:31:55.367Z,19.86
2019-04-07T08:32:51.215Z,19.81
2019-04-07T08:33:53.890Z,19.83
2019-04-07T08:34:51.701Z,19.71
2019-04-07T08:35:54.114Z,19.61
2019-04-07T08:36:52.007Z,19.55
2019-04-07T08:37:53.479Z,19.5
2019-04-07T08:38:56.043Z,19.37
2019-04-07T08:39:51.947Z,19.31
2019-04-07T08:40:54.237Z,19.16
2019-04-07T08:41:50.758Z,19.02
2019-04-07T08:42:53.558Z,18.91
2019-04-07T08:43:57.736Z,18.85
2019-04-07T08:44:51.016Z,18.69
2019-04-07T08:45:51.421Z,18.67
2019-04-07T08:46:50.923Z,18.55
2019-04-07T08:47:55.417Z,18.44
2019-04-07T08:48:56.865Z,18.45
2019-04-07T08:49:51.413Z,18.29
2019-04-07T08:50:52.837Z,18.3
2019-04-07T08:51:50.742Z,18.18
2019-04-07T08:52:52.126Z,18.21
2019-04-07T08:53:50.828Z,18.25
2019-04-07T08:54:56.586Z,18.15
2019-04-07T08:55:57.013Z,18.25
2019-04-07T08:56:54.159Z,18.23
2019-04-07T08:57:51.590Z,18.21
2019-04-07T08:58:52.118Z,18.23
2019-04-07T08:59:51.831Z,18.2
2019-04-07T09:00:56.175Z,18.21
2019-04-07T09:01:54.715Z,18.17
2019-04-07T09:03:11.290Z,18.2
2019-04-07T09:03:50.984Z,18.12
2019-04-07T09:04:54.910Z,18.15
2019-04-07T09:05:51.503Z,18.12
2019-04-07T09:06:51.251Z,18.14
2019-04-07T09:07:50.729Z,18.08
2019-04-07T09:08:51.056Z,18.21
2019-04-07T09:09:54.438Z,18.2
2019-04-07T09:10:55.072Z,18.27
2019-04-07T09:11:57.351Z,18.32
2019-04-07T09:12:51.039Z,18.2
2019-04-07T09:13:51.286Z,18.18
2019-04-07T09:14:51.772Z,18.21
2019-04-07T09:15:55.385Z,18.21
2019-04-07T09:16:58.160Z,18.35
2019-04-07T09:17:52.218Z,18.26
2019-04-07T09:19:07.299Z,18.26
2019-04-07T09:19:50.818Z,18.27
2019-04-07T09:20:54.280Z,18.25
2019-04-07T09:21:55.856Z,18.15
2019-04-07T09:22:56.054Z,18.29
2019-04-07T09:23:52.075Z,18.26
2019-04-07T09:24:50.900Z,18.32
2019-04-07T09:25:51.379Z,18.35
2019-04-07T09:26:52.434Z,18.29
2019-04-07T09:27:55.004Z,18.39
2019-04-07T09:28:54.902Z,18.45
2019-04-07T09:29:51.278Z,18.41
2019-04-07T09:30:51.086Z,18.51
2019-04-07T09:31:51.814Z,18.48
2019-04-07T09:32:51.157Z,18.6
2019-04-07T09:33:55.011Z,18.51
2019-04-07T09:34:57.658Z,18.5
2019-04-07T09:35:52.042Z,18.48
2019-04-07T09:36:55.650Z,18.58
2019-04-07T09:37:53.268Z,18.54
2019-04-07T09:38:56.916Z,18.6
2019-04-07T09:40:06.709Z,18.5
2019-04-07T09:40:53.077Z,18.55
2019-04-07T09:41:54.094Z,18.37
2019-04-07T09:42:50.824Z,18.36
2019-04-07T09:43:50.845Z,18.35
2019-04-07T09:44:50.652Z,18.29
2019-04-07T09:45:51.826Z,18.32
2019-04-07T09:46:55.599Z,18.37
2019-04-07T09:47:53.601Z,18.36
2019-04-07T09:48:55.281Z,18.37
2019-04-07T09:49:59.397Z,18.48
2019-04-07T09:50:51.406Z,18.51
2019-04-07T09:51:51.585Z,18.58
2019-04-07T09:52:52.380Z,18.48
2019-04-07T09:53:56.601Z,18.47
2019-04-07T09:54:56.055Z,18.5
2019-04-07T09:55:53.718Z,18.52
2019-04-07T09:56:50.917Z,18.55
2019-04-07T09:57:53.809Z,18.54
2019-04-07T09:58:50.464Z,18.54
2019-04-07T09:59:56.618Z,18.62
2019-04-07T10:00:55.465Z,18.67
2019-04-07T10:01:51.813Z,18.66
2019-04-07T10:02:51.618Z,18.65
2019-04-07T10:03:50.441Z,18.66
2019-04-07T10:04:50.441Z,18.58
2019-04-07T10:05:50.190Z,18.54
2019-04-07T10:06:51.967Z,18.55
2019-04-07T10:07:51.811Z,18.57
2019-04-07T10:08:50.995Z,18.57
2019-04-07T10:09:52.300Z,18.6
2019-04-07T10:10:50.801Z,18.57
2019-04-07T10:11:51.916Z,18.58
2019-04-07T10:12:51.229Z,18.52
2019-04-07T10:13:51.951Z,18.6
2019-04-07T10:14:53.045Z,18.57
2019-04-07T10:15:51.085Z,18.69
2019-04-07T10:16:50.842Z,18.73
2019-04-07T10:17:50.566Z,18.81
2019-04-07T10:18:52.122Z,18.82
2019-04-07T10:19:51.314Z,18.78
2019-04-07T10:20:50.404Z,18.9
2019-04-07T10:21:51.028Z,18.92
2019-04-07T10:22:51.618Z,19.02
2019-04-07T10:23:54.158Z,19.02
2019-04-07T10:24:51.516Z,18.95
2019-04-07T10:25:50.708Z,19.06
2019-04-07T10:26:50.982Z,19.07
2019-04-07T10:27:52.091Z,19.02
2019-04-07T10:28:54.225Z,19.08
2019-04-07T10:29:51.337Z,19.18
2019-04-07T10:30:50.807Z,19.11
2019-04-07T10:31:51.895Z,19.21
2019-04-07T10:32:51.960Z,19.16
2019-04-07T10:33:51.497Z,19.23
2019-04-07T10:34:51.027Z,19.31
2019-04-07T10:35:51.041Z,19.31
2019-04-07T10:36:50.996Z,19.32
2019-04-07T10:37:53.237Z,19.33
2019-04-07T10:38:50.814Z,19.26
2019-04-07T10:39:50.793Z,19.21
2019-04-07T10:40:50.392Z,19.29
2019-04-07T10:41:51.726Z,19.32
2019-04-07T10:42:51.504Z,19.39
2019-04-07T10:43:50.387Z,19.28
2019-04-07T10:44:50.460Z,19.22
2019-04-07T10:45:50.888Z,19.19
2019-04-07T10:46:51.574Z,19.16
2019-04-07T10:47:51.101Z,19.14
2019-04-07T10:48:51.110Z,19.04
2019-04-07T10:50:10.015Z,19.18
2019-04-07T10:50:51.791Z,19.18
2019-04-07T10:51:51.339Z,19.16
2019-04-07T10:52:51.314Z,19.21
2019-04-07T10:53:51.214Z,19.26
2019-04-07T10:54:50.748Z,19.36
2019-04-07T10:55:51.004Z,19.25
2019-04-07T10:56:51.581Z,19.31
2019-04-07T10:57:50.630Z,19.39
2019-04-07T10:58:50.867Z,19.36
2019-04-07T10:59:51.634Z,19.22
2019-04-07T11:00:53.852Z,19.18
2019-04-07T11:01:51.446Z,19.25
2019-04-07T11:02:57.177Z,19.11
2019-04-07T11:03:53.666Z,19.16
2019-04-07T11:04:51.561Z,19.26
2019-04-07T11:05:50.613Z,19.29
2019-04-07T11:06:52.476Z,19.33
2019-04-07T11:07:50.804Z,19.37
2019-04-07T11:08:50.286Z,19.4
2019-04-07T11:09:50.615Z,19.43
2019-04-07T11:10:51.110Z,19.4
2019-04-07T11:11:53.733Z,19.51
2019-04-07T11:12:51.324Z,19.47
2019-04-07T11:13:51.746Z,19.55
2019-04-07T11:14:50.324Z,19.5
2019-04-07T11:15:50.882Z,19.43
2019-04-07T11:16:50.930Z,19.33
2019-04-07T11:17:50.327Z,19.32
2019-04-07T11:18:50.400Z,19.33
2019-04-07T11:19:50.222Z,19.22
2019-04-07T11:20:51.220Z,19.14
2019-04-07T11:21:50.283Z,19.16
2019-04-07T11:22:50.195Z,19.16
2019-04-07T11:23:50.136Z,19.08
2019-04-07T11:24:51.486Z,19.1
2019-04-07T11:25:51.805Z,19.16
2019-04-07T11:26:51.690Z,19.1
2019-04-07T11:27:51.462Z,19.07
2019-04-07T11:28:50.533Z,19.18
2019-04-07T11:29:51.616Z,19.19
2019-04-07T11:30:50.892Z,19.31
2019-04-07T11:31:51.570Z,19.33
2019-04-07T11:32:50.624Z,19.32
2019-04-07T11:33:50.292Z,19.39
2019-04-07T11:34:51.261Z,19.32
2019-04-07T11:35:51.063Z,19.4
2019-04-07T11:36:51.712Z,19.5
2019-04-07T11:37:51.709Z,19.56
2019-04-07T11:38:51.573Z,19.5
2019-04-07T11:39:51.077Z,19.58
2019-04-07T11:40:55.999Z,19.58
2019-04-07T11:41:51.466Z,19.5
2019-04-07T11:42:52.171Z,19.59
2019-04-07T11:43:50.363Z,19.58
2019-04-07T11:44:51.480Z,19.63
2019-04-07T11:46:05.682Z,19.65
2019-04-07T11:46:50.881Z,19.62
2019-04-07T11:47:52.385Z,19.68
2019-04-07T11:48:50.389Z,19.84
2019-04-07T11:49:50.954Z,19.86
2019-04-07T11:50:52.142Z,19.86
2019-04-07T11:51:50.274Z,19.86
2019-04-07T11:52:51.628Z,19.76
2019-04-07T11:53:51.257Z,19.74
2019-04-07T11:54:50.102Z,19.71
2019-04-07T11:55:51.063Z,19.68
2019-04-07T11:56:52.131Z,19.68
2019-04-07T11:58:12.700Z,19.63
2019-04-07T11:58:50.157Z,19.63
2019-04-07T11:59:52.275Z,19.63
2019-04-07T12:00:51.540Z,19.65
2019-04-07T12:01:54.200Z,19.63
2019-04-07T12:02:54.489Z,19.68
2019-04-07T12:03:52.409Z,19.73
2019-04-07T12:04:50.988Z,19.69
2019-04-07T12:05:50.954Z,19.71
2019-04-07T12:06:56.366Z,19.71
2019-04-07T12:07:58.164Z,19.68
2019-04-07T12:08:51.065Z,19.69
2019-04-07T12:09:50.961Z,19.59
2019-04-07T12:11:06.600Z,19.58
2019-04-07T12:11:51.060Z,19.5
2019-04-07T12:12:49.750Z,19.55
2019-04-07T12:13:50.937Z,19.56
2019-04-07T12:14:57.713Z,19.63
2019-04-07T12:15:49.948Z,19.69
2019-04-07T12:16:52.311Z,19.66
2019-04-07T12:17:52.168Z,19.76
2019-04-07T12:18:56.727Z,19.88
2019-04-07T12:19:54.503Z,19.87
2019-04-07T12:20:50.873Z,19.8
2019-04-07T12:21:51.191Z,19.8
2019-04-07T12:22:52.849Z,19.74
2019-04-07T12:23:55.316Z,19.69
2019-04-07T12:24:50.244Z,19.8
2019-04-07T12:25:51.474Z,19.77
2019-04-07T12:26:50.630Z,19.73
2019-04-07T12:27:51.639Z,19.62
2019-04-07T12:28:54.843Z,19.56
2019-04-07T12:29:51.555Z,19.51
2019-04-07T12:30:51.242Z,19.56
2019-04-07T12:31:49.883Z,19.58
2019-04-07T12:32:50.832Z,19.62
2019-04-07T12:33:50.642Z,19.61
2019-04-07T12:34:53.517Z,19.73
2019-04-07T12:35:58.490Z,19.83
2019-04-07T12:36:50.053Z,19.88
2019-04-07T12:37:50.206Z,19.91
2019-04-07T12:38:51.045Z,20.08
2019-04-07T12:39:55.438Z,20.11
2019-04-07T12:40:54.156Z,20.21
2019-04-07T12:41:50.063Z,20.21
2019-04-07T12:42:51.292Z,20.36
2019-04-07T12:43:54.074Z,20.39
2019-04-07T12:44:50.822Z,20.43
2019-04-07T12:45:52.580Z,20.48
2019-04-07T12:46:50.950Z,20.54
2019-04-07T12:47:50.149Z,20.59
2019-04-07T12:48:50.149Z,20.52
2019-04-07T12:49:51.936Z,20.51
2019-04-07T12:50:55.213Z,20.42
2019-04-07T12:51:56.103Z,20.41
2019-04-07T12:52:50.802Z,20.41
2019-04-07T12:53:50.425Z,20.41
2019-04-07T12:54:50.337Z,20.31
2019-04-07T12:56:02.732Z,20.33
2019-04-07T12:56:51.232Z,20.26
2019-04-07T12:57:51.009Z,20.18
2019-04-07T12:58:52.976Z,20.08
2019-04-07T12:59:56.109Z,20.13
2019-04-07T13:01:19.017Z,20.08
2019-04-07T13:01:54.561Z,20.08
2019-04-07T13:02:56.182Z,20.05
2019-04-07T13:03:49.871Z,20.03